sensor_id;sensor_type;location;lat;lon;timestamp;P1;durP1;ratioP1;P2;durP2;ratioP2
13584;SDS011;6863;48.402;9.994;2023-06-22T00:00:49;14.00;;;10.65;;
13584;SDS011;6863;48.402;9.994;2023-06-22T00:03:14;11.45;;;9.50;;
13584;SDS011;6863;48.402;9.994;2023-06-22T00:08:15;12.38;;;10.40;;
13584;SDS011;6863;48.402;9.994;2023-06-22T00:10:42;11.45;;;10.23;;
13584;SDS011;6863;48.402;9.994;2023-06-22T00:13:08;14.30;;;9.85;;
13584;SDS011;6863;48.402;9.994;2023-06-22T00:15:35;13.43;;;11.32;;
13584;SDS011;6863;48.402;9.994;2023-06-22T00:18:02;11.45;;;9.93;;
13584;SDS011;6863;48.402;9.994;2023-06-22T00:20:28;14.45;;;11.18;;
13584;SDS011;6863;48.402;9.994;2023-06-22T00:22:54;11.90;;;9.98;;
13584;SDS011;6863;48.402;9.994;2023-06-22T00:25:20;12.02;;;10.73;;
13584;SDS011;6863;48.402;9.994;2023-06-22T00:27:46;12.88;;;10.05;;
13584;SDS011;6863;48.402;9.994;2023-06-22T00:30:12;11.85;;;10.63;;
13584;SDS011;6863;48.402;9.994;2023-06-22T00:32:38;14.18;;;12.68;;
13584;SDS011;6863;48.402;9.994;2023-06-22T00:35:04;12.82;;;11.52;;
13584;SDS011;6863;48.402;9.994;2023-06-22T00:37:30;13.73;;;11.52;;
13584;SDS011;6863;48.402;9.994;2023-06-22T00:39:56;15.02;;;12.07;;
13584;SDS011;6863;48.402;9.994;2023-06-22T00:42:22;12.70;;;11.38;;
13584;SDS011;6863;48.402;9.994;2023-06-22T00:44:47;14.02;;;12.63;;
13584;SDS011;6863;48.402;9.994;2023-06-22T00:47:13;15.68;;;13.10;;
13584;SDS011;6863;48.402;9.994;2023-06-22T00:49:42;16.15;;;12.40;;
13584;SDS011;6863;48.402;9.994;2023-06-22T00:52:08;16.10;;;12.82;;
13584;SDS011;6863;48.402;9.994;2023-06-22T00:54:39;15.73;;;13.77;;
13584;SDS011;6863;48.402;9.994;2023-06-22T00:57:08;16.15;;;12.82;;
13584;SDS011;6863;48.402;9.994;2023-06-22T00:59:36;14.10;;;12.32;;
13584;SDS011;6863;48.402;9.994;2023-06-22T01:02:02;15.30;;;12.82;;
13584;SDS011;6863;48.402;9.994;2023-06-22T01:04:33;13.65;;;11.90;;
13584;SDS011;6863;48.402;9.994;2023-06-22T01:12:17;14.50;;;12.05;;
13584;SDS011;6863;48.402;9.994;2023-06-22T01:14:49;15.10;;;13.35;;
13584;SDS011;6863;48.402;9.994;2023-06-22T01:17:20;15.98;;;12.13;;
13584;SDS011;6863;48.402;9.994;2023-06-22T01:19:47;16.67;;;12.88;;
13584;SDS011;6863;48.402;9.994;2023-06-22T01:22:20;18.23;;;12.98;;
13584;SDS011;6863;48.402;9.994;2023-06-22T01:30:40;13.52;;;12.15;;
13584;SDS011;6863;48.402;9.994;2023-06-22T01:33:07;16.23;;;12.57;;
13584;SDS011;6863;48.402;9.994;2023-06-22T01:35:37;14.65;;;12.15;;
13584;SDS011;6863;48.402;9.994;2023-06-22T01:38:03;13.88;;;12.23;;
13584;SDS011;6863;48.402;9.994;2023-06-22T01:40:30;13.27;;;11.88;;
13584;SDS011;6863;48.402;9.994;2023-06-22T01:42:58;16.95;;;12.45;;
13584;SDS011;6863;48.402;9.994;2023-06-22T01:45:26;13.57;;;12.13;;
13584;SDS011;6863;48.402;9.994;2023-06-22T01:47:52;14.32;;;11.50;;
13584;SDS011;6863;48.402;9.994;2023-06-22T01:50:19;14.43;;;13.00;;
13584;SDS011;6863;48.402;9.994;2023-06-22T01:52:45;14.23;;;12.00;;
13584;SDS011;6863;48.402;9.994;2023-06-22T01:55:10;15.32;;;12.75;;
13584;SDS011;6863;48.402;9.994;2023-06-22T01:57:36;15.02;;;12.93;;
13584;SDS011;6863;48.402;9.994;2023-06-22T02:00:04;17.13;;;12.48;;
13584;SDS011;6863;48.402;9.994;2023-06-22T02:08:20;13.80;;;12.23;;
13584;SDS011;6863;48.402;9.994;2023-06-22T02:10:48;15.20;;;12.85;;
13584;SDS011;6863;48.402;9.994;2023-06-22T02:13:15;14.18;;;12.18;;
13584;SDS011;6863;48.402;9.994;2023-06-22T02:15:42;13.98;;;12.02;;
13584;SDS011;6863;48.402;9.994;2023-06-22T02:18:08;11.30;;;10.20;;
13584;SDS011;6863;48.402;9.994;2023-06-22T02:20:37;12.90;;;11.40;;
13584;SDS011;6863;48.402;9.994;2023-06-22T02:23:04;11.80;;;10.57;;
13584;SDS011;6863;48.402;9.994;2023-06-22T02:25:31;12.63;;;11.32;;
13584;SDS011;6863;48.402;9.994;2023-06-22T02:27:57;12.52;;;11.00;;
13584;SDS011;6863;48.402;9.994;2023-06-22T02:30:22;15.15;;;11.15;;
13584;SDS011;6863;48.402;9.994;2023-06-22T02:32:48;13.32;;;11.93;;
13584;SDS011;6863;48.402;9.994;2023-06-22T02:35:14;14.10;;;10.55;;
13584;SDS011;6863;48.402;9.994;2023-06-22T02:37:39;12.73;;;10.65;;
13584;SDS011;6863;48.402;9.994;2023-06-22T02:40:09;11.80;;;10.52;;
13584;SDS011;6863;48.402;9.994;2023-06-22T02:42:35;14.65;;;11.77;;
13584;SDS011;6863;48.402;9.994;2023-06-22T02:45:04;13.18;;;11.80;;
13584;SDS011;6863;48.402;9.994;2023-06-22T02:47:30;12.13;;;10.85;;
13584;SDS011;6863;48.402;9.994;2023-06-22T02:49:56;13.38;;;11.85;;
13584;SDS011;6863;48.402;9.994;2023-06-22T02:52:21;12.05;;;10.75;;
13584;SDS011;6863;48.402;9.994;2023-06-22T02:54:47;17.95;;;12.27;;
13584;SDS011;6863;48.402;9.994;2023-06-22T02:57:12;13.13;;;11.75;;
13584;SDS011;6863;48.402;9.994;2023-06-22T02:59:42;15.82;;;11.52;;
13584;SDS011;6863;48.402;9.994;2023-06-22T03:02:08;13.80;;;11.52;;
13584;SDS011;6863;48.402;9.994;2023-06-22T03:04:34;13.73;;;11.32;;
13584;SDS011;6863;48.402;9.994;2023-06-22T03:07:00;12.63;;;10.73;;
13584;SDS011;6863;48.402;9.994;2023-06-22T03:09:26;15.93;;;11.18;;
13584;SDS011;6863;48.402;9.994;2023-06-22T03:11:53;14.77;;;11.32;;
13584;SDS011;6863;48.402;9.994;2023-06-22T03:14:22;19.70;;;11.75;;
13584;SDS011;6863;48.402;9.994;2023-06-22T03:16:47;12.82;;;10.95;;
13584;SDS011;6863;48.402;9.994;2023-06-22T03:19:13;14.55;;;11.95;;
13584;SDS011;6863;48.402;9.994;2023-06-22T03:21:39;13.82;;;10.88;;
13584;SDS011;6863;48.402;9.994;2023-06-22T03:24:05;14.13;;;12.05;;
13584;SDS011;6863;48.402;9.994;2023-06-22T03:26:31;13.18;;;10.23;;
13584;SDS011;6863;48.402;9.994;2023-06-22T03:28:57;11.43;;;10.23;;
13584;SDS011;6863;48.402;9.994;2023-06-22T03:31:23;12.93;;;11.13;;
13584;SDS011;6863;48.402;9.994;2023-06-22T03:33:49;11.77;;;10.57;;
13584;SDS011;6863;48.402;9.994;2023-06-22T03:36:16;15.30;;;11.40;;
13584;SDS011;6863;48.402;9.994;2023-06-22T03:38:45;13.85;;;11.55;;
13584;SDS011;6863;48.402;9.994;2023-06-22T03:41:12;13.48;;;11.23;;
13584;SDS011;6863;48.402;9.994;2023-06-22T03:43:37;16.20;;;12.38;;
13584;SDS011;6863;48.402;9.994;2023-06-22T03:46:03;13.60;;;11.95;;
13584;SDS011;6863;48.402;9.994;2023-06-22T03:48:29;12.60;;;10.48;;
13584;SDS011;6863;48.402;9.994;2023-06-22T03:50:54;13.07;;;11.63;;
13584;SDS011;6863;48.402;9.994;2023-06-22T03:53:20;13.48;;;11.80;;
13584;SDS011;6863;48.402;9.994;2023-06-22T03:55:49;13.38;;;11.88;;
13584;SDS011;6863;48.402;9.994;2023-06-22T03:58:16;15.15;;;12.18;;
13584;SDS011;6863;48.402;9.994;2023-06-22T04:00:43;12.23;;;10.70;;
13584;SDS011;6863;48.402;9.994;2023-06-22T04:03:18;11.55;;;10.35;;
13584;SDS011;6863;48.402;9.994;2023-06-22T04:08:10;13.50;;;11.55;;
13584;SDS011;6863;48.402;9.994;2023-06-22T04:10:35;12.55;;;11.02;;
13584;SDS011;6863;48.402;9.994;2023-06-22T04:13:01;13.32;;;11.15;;
13584;SDS011;6863;48.402;9.994;2023-06-22T04:15:27;12.85;;;11.55;;
13584;SDS011;6863;48.402;9.994;2023-06-22T04:17:54;13.10;;;11.63;;
13584;SDS011;6863;48.402;9.994;2023-06-22T04:20:20;12.98;;;11.32;;
13584;SDS011;6863;48.402;9.994;2023-06-22T04:22:46;16.00;;;11.18;;
13584;SDS011;6863;48.402;9.994;2023-06-22T04:25:12;11.65;;;10.50;;
13584;SDS011;6863;48.402;9.994;2023-06-22T04:27:37;14.43;;;10.88;;
13584;SDS011;6863;48.402;9.994;2023-06-22T04:30:05;12.80;;;10.88;;
13584;SDS011;6863;48.402;9.994;2023-06-22T04:32:32;13.13;;;10.32;;
13584;SDS011;6863;48.402;9.994;2023-06-22T04:34:58;11.77;;;10.57;;
13584;SDS011;6863;48.402;9.994;2023-06-22T04:37:25;11.77;;;10.57;;
13584;SDS011;6863;48.402;9.994;2023-06-22T04:39:51;15.77;;;10.85;;
13584;SDS011;6863;48.402;9.994;2023-06-22T04:42:17;11.43;;;9.48;;
13584;SDS011;6863;48.402;9.994;2023-06-22T04:44:42;9.75;;;8.85;;
13584;SDS011;6863;48.402;9.994;2023-06-22T04:47:08;10.93;;;8.98;;
13584;SDS011;6863;48.402;9.994;2023-06-22T04:49:34;13.65;;;9.82;;
13584;SDS011;6863;48.402;9.994;2023-06-22T04:52:06;11.27;;;10.05;;
13584;SDS011;6863;48.402;9.994;2023-06-22T04:54:33;11.15;;;9.13;;
13584;SDS011;6863;48.402;9.994;2023-06-22T04:57:00;10.48;;;9.13;;
13584;SDS011;6863;48.402;9.994;2023-06-22T04:59:30;10.52;;;9.30;;
13584;SDS011;6863;48.402;9.994;2023-06-22T05:01:59;11.57;;;9.07;;
13584;SDS011;6863;48.402;9.994;2023-06-22T05:04:26;10.75;;;8.88;;
13584;SDS011;6863;48.402;9.994;2023-06-22T05:06:56;9.90;;;8.90;;
13584;SDS011;6863;48.402;9.994;2023-06-22T05:09:22;10.27;;;9.23;;
13584;SDS011;6863;48.402;9.994;2023-06-22T05:11:48;9.85;;;8.82;;
13584;SDS011;6863;48.402;9.994;2023-06-22T05:14:14;10.90;;;9.38;;
13584;SDS011;6863;48.402;9.994;2023-06-22T05:16:41;10.25;;;8.75;;
13584;SDS011;6863;48.402;9.994;2023-06-22T05:19:07;9.85;;;8.50;;
13584;SDS011;6863;48.402;9.994;2023-06-22T05:21:33;12.65;;;8.95;;
13584;SDS011;6863;48.402;9.994;2023-06-22T05:23:59;11.00;;;9.10;;
13584;SDS011;6863;48.402;9.994;2023-06-22T05:26:31;11.63;;;9.45;;
13584;SDS011;6863;48.402;9.994;2023-06-22T05:28:58;14.40;;;9.23;;
13584;SDS011;6863;48.402;9.994;2023-06-22T05:31:25;11.85;;;9.07;;
13584;SDS011;6863;48.402;9.994;2023-06-22T05:33:52;9.43;;;8.25;;
13584;SDS011;6863;48.402;9.994;2023-06-22T05:36:19;11.00;;;8.45;;
13584;SDS011;6863;48.402;9.994;2023-06-22T05:38:46;10.20;;;8.75;;
13584;SDS011;6863;48.402;9.994;2023-06-22T05:41:12;11.55;;;9.30;;
13584;SDS011;6863;48.402;9.994;2023-06-22T05:43:38;12.30;;;8.98;;
13584;SDS011;6863;48.402;9.994;2023-06-22T05:46:04;10.63;;;8.70;;
13584;SDS011;6863;48.402;9.994;2023-06-22T05:48:30;12.90;;;8.73;;
13584;SDS011;6863;48.402;9.994;2023-06-22T05:50:56;11.55;;;9.40;;
13584;SDS011;6863;48.402;9.994;2023-06-22T05:53:21;11.85;;;9.18;;
13584;SDS011;6863;48.402;9.994;2023-06-22T05:55:47;9.73;;;8.70;;
13584;SDS011;6863;48.402;9.994;2023-06-22T05:58:13;10.35;;;8.88;;
13584;SDS011;6863;48.402;9.994;2023-06-22T06:00:39;10.02;;;8.57;;
13584;SDS011;6863;48.402;9.994;2023-06-22T06:03:06;9.82;;;8.77;;
13584;SDS011;6863;48.402;9.994;2023-06-22T06:05:33;12.77;;;8.32;;
13584;SDS011;6863;48.402;9.994;2023-06-22T06:08:12;16.92;;;9.80;;
13584;SDS011;6863;48.402;9.994;2023-06-22T06:10:38;13.27;;;9.15;;
13584;SDS011;6863;48.402;9.994;2023-06-22T06:13:04;10.63;;;8.68;;
13584;SDS011;6863;48.402;9.994;2023-06-22T06:15:30;10.95;;;8.00;;
13584;SDS011;6863;48.402;9.994;2023-06-22T06:17:57;11.50;;;9.38;;
13584;SDS011;6863;48.402;9.994;2023-06-22T06:20:23;9.15;;;8.20;;
13584;SDS011;6863;48.402;9.994;2023-06-22T06:22:51;12.55;;;8.02;;
13584;SDS011;6863;48.402;9.994;2023-06-22T06:25:16;10.02;;;8.90;;
13584;SDS011;6863;48.402;9.994;2023-06-22T06:27:47;10.88;;;8.32;;
13584;SDS011;6863;48.402;9.994;2023-06-22T06:30:16;12.93;;;8.95;;
13584;SDS011;6863;48.402;9.994;2023-06-22T06:32:43;9.30;;;8.30;;
13584;SDS011;6863;48.402;9.994;2023-06-22T06:35:10;10.20;;;8.50;;
13584;SDS011;6863;48.402;9.994;2023-06-22T06:37:37;9.32;;;8.43;;
13584;SDS011;6863;48.402;9.994;2023-06-22T06:40:05;10.95;;;8.48;;
13584;SDS011;6863;48.402;9.994;2023-06-22T06:42:35;11.35;;;9.82;;
13584;SDS011;6863;48.402;9.994;2023-06-22T06:45:02;14.52;;;9.30;;
13584;SDS011;6863;48.402;9.994;2023-06-22T06:47:29;11.60;;;8.07;;
13584;SDS011;6863;48.402;9.994;2023-06-22T06:49:55;12.45;;;7.90;;
13584;SDS011;6863;48.402;9.994;2023-06-22T06:52:20;10.00;;;8.55;;
13584;SDS011;6863;48.402;9.994;2023-06-22T06:54:46;11.00;;;8.98;;
13584;SDS011;6863;48.402;9.994;2023-06-22T06:57:11;10.45;;;8.55;;
13584;SDS011;6863;48.402;9.994;2023-06-22T06:59:38;10.73;;;8.40;;
13584;SDS011;6863;48.402;9.994;2023-06-22T07:02:04;10.65;;;9.55;;
13584;SDS011;6863;48.402;9.994;2023-06-22T07:04:30;13.15;;;9.07;;
13584;SDS011;6863;48.402;9.994;2023-06-22T07:06:55;11.15;;;8.13;;
13584;SDS011;6863;48.402;9.994;2023-06-22T07:09:21;11.70;;;8.45;;
13584;SDS011;6863;48.402;9.994;2023-06-22T07:11:46;11.93;;;8.90;;
13584;SDS011;6863;48.402;9.994;2023-06-22T07:14:12;9.80;;;8.95;;
13584;SDS011;6863;48.402;9.994;2023-06-22T07:16:38;9.85;;;8.38;;
13584;SDS011;6863;48.402;9.994;2023-06-22T07:19:07;11.05;;;8.75;;
13584;SDS011;6863;48.402;9.994;2023-06-22T07:21:32;10.02;;;9.02;;
13584;SDS011;6863;48.402;9.994;2023-06-22T07:23:58;14.43;;;8.68;;
13584;SDS011;6863;48.402;9.994;2023-06-22T07:26:26;10.38;;;8.52;;
13584;SDS011;6863;48.402;9.994;2023-06-22T07:28:58;10.57;;;8.50;;
13584;SDS011;6863;48.402;9.994;2023-06-22T07:31:24;13.85;;;9.65;;
13584;SDS011;6863;48.402;9.994;2023-06-22T07:33:50;11.35;;;8.57;;
13584;SDS011;6863;48.402;9.994;2023-06-22T07:36:16;12.43;;;9.77;;
13584;SDS011;6863;48.402;9.994;2023-06-22T07:38:42;9.20;;;8.18;;
13584;SDS011;6863;48.402;9.994;2023-06-22T07:41:09;10.90;;;7.68;;
13584;SDS011;6863;48.402;9.994;2023-06-22T07:43:34;9.85;;;8.20;;
13584;SDS011;6863;48.402;9.994;2023-06-22T07:46:02;11.68;;;8.18;;
13584;SDS011;6863;48.402;9.994;2023-06-22T07:48:29;10.85;;;8.88;;
13584;SDS011;6863;48.402;9.994;2023-06-22T07:50:55;11.90;;;8.60;;
13584;SDS011;6863;48.402;9.994;2023-06-22T07:53:21;12.13;;;8.23;;
13584;SDS011;6863;48.402;9.994;2023-06-22T07:55:48;8.98;;;8.07;;
13584;SDS011;6863;48.402;9.994;2023-06-22T07:58:14;11.63;;;8.82;;
13584;SDS011;6863;48.402;9.994;2023-06-22T08:00:40;11.63;;;7.80;;
13584;SDS011;6863;48.402;9.994;2023-06-22T08:03:06;11.80;;;7.93;;
13584;SDS011;6863;48.402;9.994;2023-06-22T08:05:32;10.70;;;8.40;;
13584;SDS011;6863;48.402;9.994;2023-06-22T08:08:11;18.42;;;9.80;;
13584;SDS011;6863;48.402;9.994;2023-06-22T08:10:37;17.05;;;8.05;;
13584;SDS011;6863;48.402;9.994;2023-06-22T08:13:02;12.02;;;7.88;;
13584;SDS011;6863;48.402;9.994;2023-06-22T08:15:28;8.60;;;7.65;;
13584;SDS011;6863;48.402;9.994;2023-06-22T08:17:54;8.35;;;7.22;;
13584;SDS011;6863;48.402;9.994;2023-06-22T08:20:20;12.00;;;8.23;;
13584;SDS011;6863;48.402;9.994;2023-06-22T08:22:45;8.80;;;7.88;;
13584;SDS011;6863;48.402;9.994;2023-06-22T08:25:11;10.68;;;8.05;;
13584;SDS011;6863;48.402;9.994;2023-06-22T08:27:38;9.88;;;7.70;;
13584;SDS011;6863;48.402;9.994;2023-06-22T08:30:04;9.35;;;7.47;;
13584;SDS011;6863;48.402;9.994;2023-06-22T08:32:30;9.68;;;7.70;;
13584;SDS011;6863;48.402;9.994;2023-06-22T08:34:57;9.50;;;8.18;;
13584;SDS011;6863;48.402;9.994;2023-06-22T08:37:23;13.10;;;8.88;;
13584;SDS011;6863;48.402;9.994;2023-06-22T08:39:55;11.27;;;8.27;;
13584;SDS011;6863;48.402;9.994;2023-06-22T08:42:24;12.50;;;7.90;;
13584;SDS011;6863;48.402;9.994;2023-06-22T08:44:50;11.43;;;8.27;;
13584;SDS011;6863;48.402;9.994;2023-06-22T08:47:16;12.05;;;7.80;;
13584;SDS011;6863;48.402;9.994;2023-06-22T08:49:41;10.63;;;8.73;;
13584;SDS011;6863;48.402;9.994;2023-06-22T08:52:07;10.80;;;7.90;;
13584;SDS011;6863;48.402;9.994;2023-06-22T08:54:33;9.75;;;8.38;;
13584;SDS011;6863;48.402;9.994;2023-06-22T08:56:59;12.52;;;8.18;;
13584;SDS011;6863;48.402;9.994;2023-06-22T08:59:25;12.15;;;9.43;;
13584;SDS011;6863;48.402;9.994;2023-06-22T09:01:51;13.65;;;8.27;;
13584;SDS011;6863;48.402;9.994;2023-06-22T09:04:16;12.57;;;8.18;;
13584;SDS011;6863;48.402;9.994;2023-06-22T09:06:42;10.07;;;7.63;;
13584;SDS011;6863;48.402;9.994;2023-06-22T09:09:10;9.40;;;7.55;;
13584;SDS011;6863;48.402;9.994;2023-06-22T09:11:40;10.55;;;8.05;;
13584;SDS011;6863;48.402;9.994;2023-06-22T09:14:06;13.15;;;7.93;;
13584;SDS011;6863;48.402;9.994;2023-06-22T09:16:32;8.30;;;7.00;;
13584;SDS011;6863;48.402;9.994;2023-06-22T09:18:57;12.75;;;9.38;;
13584;SDS011;6863;48.402;9.994;2023-06-22T09:21:23;10.55;;;7.78;;
13584;SDS011;6863;48.402;9.994;2023-06-22T09:23:49;9.98;;;7.75;;
13584;SDS011;6863;48.402;9.994;2023-06-22T09:26:17;9.77;;;8.32;;
13584;SDS011;6863;48.402;9.994;2023-06-22T09:28:43;11.75;;;8.68;;
13584;SDS011;6863;48.402;9.994;2023-06-22T09:31:08;13.63;;;8.63;;
13584;SDS011;6863;48.402;9.994;2023-06-22T09:33:35;8.82;;;7.93;;
13584;SDS011;6863;48.402;9.994;2023-06-22T09:36:01;9.13;;;8.07;;
13584;SDS011;6863;48.402;9.994;2023-06-22T09:38:27;10.98;;;7.95;;
13584;SDS011;6863;48.402;9.994;2023-06-22T09:40:52;12.27;;;8.52;;
13584;SDS011;6863;48.402;9.994;2023-06-22T09:43:18;11.68;;;9.13;;
13584;SDS011;6863;48.402;9.994;2023-06-22T09:45:43;13.60;;;9.45;;
13584;SDS011;6863;48.402;9.994;2023-06-22T09:48:09;11.55;;;8.80;;
13584;SDS011;6863;48.402;9.994;2023-06-22T09:50:35;13.15;;;8.77;;
13584;SDS011;6863;48.402;9.994;2023-06-22T09:53:02;15.35;;;8.60;;
13584;SDS011;6863;48.402;9.994;2023-06-22T09:55:28;10.80;;;8.50;;
13584;SDS011;6863;48.402;9.994;2023-06-22T09:57:53;12.85;;;8.82;;
13584;SDS011;6863;48.402;9.994;2023-06-22T10:00:20;11.57;;;8.88;;
13584;SDS011;6863;48.402;9.994;2023-06-22T10:02:46;11.13;;;8.57;;
13584;SDS011;6863;48.402;9.994;2023-06-22T10:05:12;10.80;;;8.00;;
13584;SDS011;6863;48.402;9.994;2023-06-22T10:07:38;77.88;;;16.95;;
13584;SDS011;6863;48.402;9.994;2023-06-22T10:10:08;11.07;;;8.13;;
13584;SDS011;6863;48.402;9.994;2023-06-22T10:12:35;10.30;;;8.35;;
13584;SDS011;6863;48.402;9.994;2023-06-22T10:15:01;15.60;;;8.57;;
13584;SDS011;6863;48.402;9.994;2023-06-22T10:17:32;11.65;;;8.35;;
13584;SDS011;6863;48.402;9.994;2023-06-22T10:19:57;16.52;;;9.10;;
13584;SDS011;6863;48.402;9.994;2023-06-22T10:22:23;10.68;;;8.38;;
13584;SDS011;6863;48.402;9.994;2023-06-22T10:24:48;13.68;;;9.18;;
13584;SDS011;6863;48.402;9.994;2023-06-22T10:27:14;10.68;;;8.82;;
13584;SDS011;6863;48.402;9.994;2023-06-22T10:29:43;12.30;;;8.82;;
13584;SDS011;6863;48.402;9.994;2023-06-22T10:32:09;11.80;;;8.30;;
13584;SDS011;6863;48.402;9.994;2023-06-22T10:34:36;11.98;;;8.25;;
13584;SDS011;6863;48.402;9.994;2023-06-22T10:37:02;12.57;;;8.93;;
13584;SDS011;6863;48.402;9.994;2023-06-22T10:39:28;11.20;;;9.10;;
13584;SDS011;6863;48.402;9.994;2023-06-22T10:41:53;14.90;;;9.05;;
13584;SDS011;6863;48.402;9.994;2023-06-22T10:44:22;11.88;;;8.40;;
13584;SDS011;6863;48.402;9.994;2023-06-22T10:46:48;14.20;;;8.10;;
13584;SDS011;6863;48.402;9.994;2023-06-22T10:49:16;13.07;;;7.90;;
13584;SDS011;6863;48.402;9.994;2023-06-22T10:51:42;11.93;;;8.30;;
13584;SDS011;6863;48.402;9.994;2023-06-22T10:54:07;9.00;;;7.68;;
13584;SDS011;6863;48.402;9.994;2023-06-22T10:56:33;16.80;;;9.07;;
13584;SDS011;6863;48.402;9.994;2023-06-22T10:58:58;12.80;;;8.50;;
13584;SDS011;6863;48.402;9.994;2023-06-22T11:01:24;15.00;;;8.63;;
13584;SDS011;6863;48.402;9.994;2023-06-22T11:03:50;10.20;;;8.20;;
13584;SDS011;6863;48.402;9.994;2023-06-22T11:06:15;14.63;;;8.77;;
13584;SDS011;6863;48.402;9.994;2023-06-22T11:08:43;38.70;;;11.85;;
13584;SDS011;6863;48.402;9.994;2023-06-22T11:11:09;15.15;;;8.88;;
13584;SDS011;6863;48.402;9.994;2023-06-22T11:13:35;12.23;;;8.30;;
13584;SDS011;6863;48.402;9.994;2023-06-22T11:16:00;13.40;;;8.32;;
13584;SDS011;6863;48.402;9.994;2023-06-22T11:18:26;15.38;;;7.78;;
13584;SDS011;6863;48.402;9.994;2023-06-22T11:20:51;12.80;;;7.60;;
13584;SDS011;6863;48.402;9.994;2023-06-22T11:23:18;14.80;;;7.95;;
13584;SDS011;6863;48.402;9.994;2023-06-22T11:25:44;11.38;;;7.70;;
13584;SDS011;6863;48.402;9.994;2023-06-22T11:28:11;11.38;;;7.50;;
13584;SDS011;6863;48.402;9.994;2023-06-22T11:30:37;12.25;;;7.60;;
13584;SDS011;6863;48.402;9.994;2023-06-22T11:33:02;11.02;;;7.35;;
13584;SDS011;6863;48.402;9.994;2023-06-22T11:35:28;12.23;;;7.18;;
13584;SDS011;6863;48.402;9.994;2023-06-22T11:37:54;20.63;;;8.43;;
13584;SDS011;6863;48.402;9.994;2023-06-22T11:40:21;11.90;;;7.95;;
13584;SDS011;6863;48.402;9.994;2023-06-22T11:42:47;15.82;;;8.30;;
13584;SDS011;6863;48.402;9.994;2023-06-22T11:45:13;16.73;;;7.38;;
13584;SDS011;6863;48.402;9.994;2023-06-22T11:47:39;10.98;;;7.82;;
13584;SDS011;6863;48.402;9.994;2023-06-22T11:50:05;9.65;;;7.53;;
13584;SDS011;6863;48.402;9.994;2023-06-22T11:52:32;10.95;;;7.63;;
13584;SDS011;6863;48.402;9.994;2023-06-22T11:54:58;12.52;;;8.38;;
13584;SDS011;6863;48.402;9.994;2023-06-22T11:57:24;11.60;;;7.78;;
13584;SDS011;6863;48.402;9.994;2023-06-22T11:59:50;10.43;;;7.22;;
13584;SDS011;6863;48.402;9.994;2023-06-22T12:02:15;10.40;;;7.57;;
13584;SDS011;6863;48.402;9.994;2023-06-22T12:04:41;13.35;;;8.30;;
13584;SDS011;6863;48.402;9.994;2023-06-22T12:07:06;11.48;;;7.40;;
13584;SDS011;6863;48.402;9.994;2023-06-22T12:09:32;11.02;;;8.30;;
13584;SDS011;6863;48.402;9.994;2023-06-22T12:11:58;11.98;;;8.10;;
13584;SDS011;6863;48.402;9.994;2023-06-22T12:14:23;11.18;;;8.38;;
13584;SDS011;6863;48.402;9.994;2023-06-22T12:16:49;11.52;;;8.00;;
13584;SDS011;6863;48.402;9.994;2023-06-22T12:19:14;15.02;;;8.93;;
13584;SDS011;6863;48.402;9.994;2023-06-22T12:21:40;12.38;;;8.50;;
13584;SDS011;6863;48.402;9.994;2023-06-22T12:24:06;11.82;;;9.15;;
13584;SDS011;6863;48.402;9.994;2023-06-22T12:26:31;11.38;;;8.68;;
13584;SDS011;6863;48.402;9.994;2023-06-22T12:28:57;12.68;;;9.32;;
13584;SDS011;6863;48.402;9.994;2023-06-22T12:31:22;15.25;;;9.98;;
13584;SDS011;6863;48.402;9.994;2023-06-22T12:33:48;13.45;;;9.75;;
13584;SDS011;6863;48.402;9.994;2023-06-22T12:36:13;14.13;;;10.07;;
13584;SDS011;6863;48.402;9.994;2023-06-22T12:38:41;14.80;;;9.55;;
13584;SDS011;6863;48.402;9.994;2023-06-22T12:41:07;14.07;;;10.68;;
13584;SDS011;6863;48.402;9.994;2023-06-22T12:43:32;13.23;;;9.23;;
13584;SDS011;6863;48.402;9.994;2023-06-22T12:45:58;14.13;;;9.20;;
13584;SDS011;6863;48.402;9.994;2023-06-22T12:48:25;18.38;;;9.57;;
13584;SDS011;6863;48.402;9.994;2023-06-22T12:50:51;9.73;;;8.73;;
13584;SDS011;6863;48.402;9.994;2023-06-22T12:53:16;12.25;;;8.88;;
13584;SDS011;6863;48.402;9.994;2023-06-22T12:55:42;15.80;;;9.98;;
13584;SDS011;6863;48.402;9.994;2023-06-22T12:58:08;12.00;;;8.68;;
13584;SDS011;6863;48.402;9.994;2023-06-22T13:00:33;12.73;;;9.18;;
13584;SDS011;6863;48.402;9.994;2023-06-22T13:02:59;20.58;;;10.07;;
13584;SDS011;6863;48.402;9.994;2023-06-22T13:05:25;11.35;;;8.57;;
13584;SDS011;6863;48.402;9.994;2023-06-22T13:07:54;13.55;;;8.10;;
13584;SDS011;6863;48.402;9.994;2023-06-22T13:10:20;14.05;;;8.27;;
13584;SDS011;6863;48.402;9.994;2023-06-22T13:12:45;12.38;;;8.50;;
13584;SDS011;6863;48.402;9.994;2023-06-22T13:15:11;13.20;;;9.05;;
13584;SDS011;6863;48.402;9.994;2023-06-22T13:17:37;16.88;;;9.25;;
13584;SDS011;6863;48.402;9.994;2023-06-22T13:20:02;23.30;;;9.70;;
13584;SDS011;6863;48.402;9.994;2023-06-22T13:22:30;21.02;;;8.48;;
13584;SDS011;6863;48.402;9.994;2023-06-22T13:25:05;14.43;;;9.43;;
13584;SDS011;6863;48.402;9.994;2023-06-22T13:27:32;13.57;;;8.35;;
13584;SDS011;6863;48.402;9.994;2023-06-22T13:29:57;13.02;;;8.50;;
13584;SDS011;6863;48.402;9.994;2023-06-22T13:32:23;12.95;;;8.15;;
13584;SDS011;6863;48.402;9.994;2023-06-22T13:34:48;10.40;;;7.75;;
13584;SDS011;6863;48.402;9.994;2023-06-22T13:37:14;14.35;;;8.68;;
13584;SDS011;6863;48.402;9.994;2023-06-22T13:39:40;14.05;;;8.07;;
13584;SDS011;6863;48.402;9.994;2023-06-22T13:42:06;13.32;;;9.13;;
13584;SDS011;6863;48.402;9.994;2023-06-22T13:44:32;13.63;;;9.15;;
13584;SDS011;6863;48.402;9.994;2023-06-22T13:46:58;47.63;;;11.77;;
13584;SDS011;6863;48.402;9.994;2023-06-22T13:49:30;15.18;;;8.30;;
13584;SDS011;6863;48.402;9.994;2023-06-22T13:51:56;15.13;;;8.63;;
13584;SDS011;6863;48.402;9.994;2023-06-22T13:54:22;13.20;;;8.57;;
13584;SDS011;6863;48.402;9.994;2023-06-22T13:56:47;10.60;;;8.93;;
13584;SDS011;6863;48.402;9.994;2023-06-22T13:59:13;13.43;;;9.35;;
13584;SDS011;6863;48.402;9.994;2023-06-22T14:01:39;11.50;;;8.88;;
13584;SDS011;6863;48.402;9.994;2023-06-22T14:04:06;10.70;;;8.70;;
13584;SDS011;6863;48.402;9.994;2023-06-22T14:06:31;14.20;;;8.55;;
13584;SDS011;6863;48.402;9.994;2023-06-22T14:08:57;10.15;;;8.10;;
13584;SDS011;6863;48.402;9.994;2023-06-22T14:11:24;14.05;;;9.80;;
13584;SDS011;6863;48.402;9.994;2023-06-22T14:13:50;16.20;;;9.02;;
13584;SDS011;6863;48.402;9.994;2023-06-22T14:16:15;14.93;;;8.98;;
13584;SDS011;6863;48.402;9.994;2023-06-22T14:18:41;14.80;;;9.25;;
13584;SDS011;6863;48.402;9.994;2023-06-22T14:21:07;12.00;;;8.88;;
13584;SDS011;6863;48.402;9.994;2023-06-22T14:23:32;11.50;;;9.73;;
13584;SDS011;6863;48.402;9.994;2023-06-22T14:25:58;16.00;;;9.82;;
13584;SDS011;6863;48.402;9.994;2023-06-22T14:28:24;12.77;;;10.00;;
13584;SDS011;6863;48.402;9.994;2023-06-22T14:30:49;16.05;;;9.10;;
13584;SDS011;6863;48.402;9.994;2023-06-22T14:33:15;13.82;;;9.40;;
13584;SDS011;6863;48.402;9.994;2023-06-22T14:35:40;14.32;;;9.50;;
13584;SDS011;6863;48.402;9.994;2023-06-22T14:38:06;12.13;;;9.57;;
13584;SDS011;6863;48.402;9.994;2023-06-22T14:40:32;16.85;;;8.93;;
13584;SDS011;6863;48.402;9.994;2023-06-22T14:42:57;18.83;;;10.40;;
13584;SDS011;6863;48.402;9.994;2023-06-22T14:45:23;14.93;;;10.00;;
13584;SDS011;6863;48.402;9.994;2023-06-22T14:47:49;16.23;;;9.65;;
13584;SDS011;6863;48.402;9.994;2023-06-22T14:50:15;14.25;;;9.60;;
13584;SDS011;6863;48.402;9.994;2023-06-22T14:52:40;11.88;;;8.88;;
13584;SDS011;6863;48.402;9.994;2023-06-22T14:55:06;14.27;;;10.10;;
13584;SDS011;6863;48.402;9.994;2023-06-22T14:57:32;12.68;;;9.32;;
13584;SDS011;6863;48.402;9.994;2023-06-22T14:59:58;10.98;;;9.55;;
13584;SDS011;6863;48.402;9.994;2023-06-22T15:02:23;11.65;;;9.68;;